Adelanto, CA

6:26 AM PST on November 28, 2014 (GMT -0800)
El Mirage Airport (99CL) | Change Station
CLOSE
Current Station
Personal Weather Station
Location: Adelanto, CA
Elevation: 2880 ft
Nearby Weather Stations

Elev 2880 ft 34.62 °N, 117.60 °W | Updated 4 minutes ago

Clear
Clear
32.3 °F
Feels Like 32 °F
N
1.6
Wind Variable Wind from SE
Gusts 2.0 mph

Today
High -- | Low -- °F
--% Chance of Precip.
Yesterday
High -- | Low -- °F
Precip. -- in
6:36 AM 4:39 PM
Waxing Crescent, 41% visible
Pressure 30.14 in
Visibility 10.0 miles
Clouds Clear
Windchill 32 °F
Dew Point 5 °F
Humidity 31%
Rainfall 0.00 in
Snow Depth Not available.
UV 0 out of 12
Pollen 2.10 out of 12
Air Quality Not available.
Flu Activity Not available.
METAR KGXA 281355Z AUTO 16005KT 10SM CLR 03/M16 A3008 RMK AO2 SLP207 T00331164 PWINO TSNO $

More Conditions Fewer Conditions

Pressure 30.14 in
Visibility 10.0 miles
Clouds Clear
Windchill 32 °F
Dew Point 5 °F
Humidity 31%
Rainfall 0.00 in
Snow Depth Not available.
UV 0 out of 12
Pollen 2.10 out of 12
Air Quality Not available.
Flu Activity Not available.
METAR KGXA 281355Z AUTO 16005KT 10SM CLR 03/M16 A3008 RMK AO2 SLP207 T00331164 PWINO TSNO $

More Conditions Fewer Conditions

10-Day Weather Forecast

Almanac

Astronomy

Nov. 28, 2014 Rise Set
Actual Time
Civil Twilight
Nautical Twilight
Astronomical Twilight
Moon
Length of Visible Light
Length of Day
Tomorrow will be .
, % of the Moon is Illuminated

Today's Extremes

State Highs State Lows

Community

WunderPhotos

Upload Photos

1,774,213 photos uploaded!

WunderBlogs® & News

Nearby

Air Quality

  Air Quality AQ Index Pollutant
Not available.

Snow Depth

Station Depth Elevation

Earthquake Activity

City Distance Mag. Time & Date
Minimum magnitude displayed is 2.5.

Coastal Water Temperatures

Place Temperature

Nearby Weather Stations